logo
Search for airport 
image banner adimage banner adimage banner ad
image banner ad

OIBS - Sirri Island / Sirri / National

Located in Sirri, Iran, Islamic Republic of

ICAO - OIBS, IATA - SXI

Data provided by Airmate  

General information

Coordinates: N25°54'30" E54°32'30"
Elevation is 26 feet MSL.
 
View others Airports in Hormozgan Province

Operational data

Special qualification required
Current time UTC:
Current local time:
Weather
METAR: OIBS 130600Z 27008KT 9999 FEW025 BKN100 27/20 Q1007
View NOTAMs / SUP AIP / TFR affecting this airport [VIEW]
Communications frequencies: [VIEW]

Runways:

RWY identifierQFULength (ft)Width (ft)SurfaceLDA (ft)
12126°8156148ASP
30306°8156148ASP

Airport contact information

Address: Sirri Iran, Islamic Republic of

Satellite view of OIBS